sensor_id;sensor_type;location;lat;lon;timestamp;temperature;humidity
8332;DHT22;4203;48.144;14.118;2023-03-11T00:00:07;5.90;99.90
8332;DHT22;4203;48.144;14.118;2023-03-11T00:02:38;5.80;99.90
8332;DHT22;4203;48.144;14.118;2023-03-11T00:05:06;5.80;99.90
8332;DHT22;4203;48.144;14.118;2023-03-11T00:07:34;5.90;99.90
8332;DHT22;4203;48.144;14.118;2023-03-11T00:10:05;5.90;99.90
8332;DHT22;4203;48.144;14.118;2023-03-11T00:12:32;5.90;99.90
8332;DHT22;4203;48.144;14.118;2023-03-11T00:14:59;5.90;99.90
8332;DHT22;4203;48.144;14.118;2023-03-11T00:17:27;5.80;99.90
8332;DHT22;4203;48.144;14.118;2023-03-11T00:19:54;5.80;99.90
8332;DHT22;4203;48.144;14.118;2023-03-11T00:22:21;5.70;99.90
8332;DHT22;4203;48.144;14.118;2023-03-11T00:24:49;5.70;99.90
8332;DHT22;4203;48.144;14.118;2023-03-11T00:27:18;5.70;99.90
8332;DHT22;4203;48.144;14.118;2023-03-11T00:29:45;5.60;99.90
8332;DHT22;4203;48.144;14.118;2023-03-11T00:32:12;5.60;99.90
8332;DHT22;4203;48.144;14.118;2023-03-11T00:34:40;5.50;99.90
8332;DHT22;4203;48.144;14.118;2023-03-11T00:37:07;5.50;99.90
8332;DHT22;4203;48.144;14.118;2023-03-11T00:39:34;5.40;99.90
8332;DHT22;4203;48.144;14.118;2023-03-11T00:42:01;5.40;99.90
8332;DHT22;4203;48.144;14.118;2023-03-11T00:44:30;5.30;99.90
8332;DHT22;4203;48.144;14.118;2023-03-11T00:46:58;5.20;99.90
8332;DHT22;4203;48.144;14.118;2023-03-11T00:49:25;5.20;99.90
8332;DHT22;4203;48.144;14.118;2023-03-11T00:51:52;5.00;99.90
8332;DHT22;4203;48.144;14.118;2023-03-11T00:54:19;4.90;99.90
8332;DHT22;4203;48.144;14.118;2023-03-11T00:56:46;4.80;99.90
8332;DHT22;4203;48.144;14.118;2023-03-11T00:59:13;4.80;99.90
8332;DHT22;4203;48.144;14.118;2023-03-11T01:01:42;4.70;99.90
8332;DHT22;4203;48.144;14.118;2023-03-11T01:04:09;4.70;99.90
8332;DHT22;4203;48.144;14.118;2023-03-11T01:06:36;4.50;99.90
8332;DHT22;4203;48.144;14.118;2023-03-11T01:09:04;4.50;99.90
8332;DHT22;4203;48.144;14.118;2023-03-11T01:11:31;4.40;99.90
8332;DHT22;4203;48.144;14.118;2023-03-11T01:13:58;4.30;99.90
8332;DHT22;4203;48.144;14.118;2023-03-11T01:16:25;4.20;99.90
8332;DHT22;4203;48.144;14.118;2023-03-11T01:18:54;4.10;99.90
8332;DHT22;4203;48.144;14.118;2023-03-11T01:21:21;4.00;99.90
8332;DHT22;4203;48.144;14.118;2023-03-11T01:23:48;3.90;99.90
8332;DHT22;4203;48.144;14.118;2023-03-11T01:26:16;3.90;99.90
8332;DHT22;4203;48.144;14.118;2023-03-11T01:28:43;3.80;99.90
8332;DHT22;4203;48.144;14.118;2023-03-11T01:31:10;3.70;99.90
8332;DHT22;4203;48.144;14.118;2023-03-11T01:33:38;3.60;99.90
8332;DHT22;4203;48.144;14.118;2023-03-11T01:36:08;3.60;99.90
8332;DHT22;4203;48.144;14.118;2023-03-11T01:38:35;3.60;99.90
8332;DHT22;4203;48.144;14.118;2023-03-11T01:41:03;3.60;99.90
8332;DHT22;4203;48.144;14.118;2023-03-11T01:43:51;3.60;99.90
8332;DHT22;4203;48.144;14.118;2023-03-11T01:46:21;3.50;99.90
8332;DHT22;4203;48.144;14.118;2023-03-11T01:48:52;3.40;99.90
8332;DHT22;4203;48.144;14.118;2023-03-11T01:51:24;3.50;99.90
8332;DHT22;4203;48.144;14.118;2023-03-11T01:53:54;3.40;99.90
8332;DHT22;4203;48.144;14.118;2023-03-11T01:56:22;3.50;99.90
8332;DHT22;4203;48.144;14.118;2023-03-11T01:58:52;3.50;99.90
8332;DHT22;4203;48.144;14.118;2023-03-11T02:01:20;3.40;99.90
8332;DHT22;4203;48.144;14.118;2023-03-11T02:03:48;3.40;99.90
8332;DHT22;4203;48.144;14.118;2023-03-11T02:06:17;3.40;99.90
8332;DHT22;4203;48.144;14.118;2023-03-11T02:08:47;3.40;99.90
8332;DHT22;4203;48.144;14.118;2023-03-11T02:11:17;3.40;99.90
8332;DHT22;4203;48.144;14.118;2023-03-11T02:13:45;3.30;99.90
8332;DHT22;4203;48.144;14.118;2023-03-11T02:16:13;3.30;99.90
8332;DHT22;4203;48.144;14.118;2023-03-11T02:18:41;3.30;99.90
8332;DHT22;4203;48.144;14.118;2023-03-11T02:21:17;3.20;99.90
8332;DHT22;4203;48.144;14.118;2023-03-11T02:23:55;3.20;99.90
8332;DHT22;4203;48.144;14.118;2023-03-11T02:26:29;3.20;99.90
8332;DHT22;4203;48.144;14.118;2023-03-11T02:29:04;3.20;99.90
8332;DHT22;4203;48.144;14.118;2023-03-11T02:31:34;3.10;99.90
8332;DHT22;4203;48.144;14.118;2023-03-11T02:34:05;3.10;99.90
8332;DHT22;4203;48.144;14.118;2023-03-11T02:36:35;3.10;99.90
8332;DHT22;4203;48.144;14.118;2023-03-11T02:39:02;3.00;99.90
8332;DHT22;4203;48.144;14.118;2023-03-11T02:41:31;3.00;99.90
8332;DHT22;4203;48.144;14.118;2023-03-11T02:43:59;2.90;99.90
8332;DHT22;4203;48.144;14.118;2023-03-11T02:46:29;2.90;99.90
8332;DHT22;4203;48.144;14.118;2023-03-11T02:48:57;2.80;99.90
8332;DHT22;4203;48.144;14.118;2023-03-11T02:51:25;2.80;99.90
8332;DHT22;4203;48.144;14.118;2023-03-11T02:53:57;2.80;99.90
8332;DHT22;4203;48.144;14.118;2023-03-11T02:56:25;2.70;99.90
8332;DHT22;4203;48.144;14.118;2023-03-11T02:58:53;2.70;99.90
8332;DHT22;4203;48.144;14.118;2023-03-11T03:01:20;2.60;99.90
8332;DHT22;4203;48.144;14.118;2023-03-11T03:03:49;2.60;99.90
8332;DHT22;4203;48.144;14.118;2023-03-11T03:06:16;2.60;99.90
8332;DHT22;4203;48.144;14.118;2023-03-11T03:08:43;2.60;99.90
8332;DHT22;4203;48.144;14.118;2023-03-11T03:11:11;2.50;99.90
8332;DHT22;4203;48.144;14.118;2023-03-11T03:13:38;2.50;99.90
8332;DHT22;4203;48.144;14.118;2023-03-11T03:16:06;2.50;99.90
8332;DHT22;4203;48.144;14.118;2023-03-11T03:18:33;2.50;99.90
8332;DHT22;4203;48.144;14.118;2023-03-11T03:21:02;2.50;99.90
8332;DHT22;4203;48.144;14.118;2023-03-11T03:23:29;2.50;99.90
8332;DHT22;4203;48.144;14.118;2023-03-11T03:25:59;2.50;99.90
8332;DHT22;4203;48.144;14.118;2023-03-11T03:28:27;2.50;99.90
8332;DHT22;4203;48.144;14.118;2023-03-11T03:30:54;2.50;99.90
8332;DHT22;4203;48.144;14.118;2023-03-11T03:33:21;2.40;99.90
8332;DHT22;4203;48.144;14.118;2023-03-11T03:35:49;2.50;99.90
8332;DHT22;4203;48.144;14.118;2023-03-11T03:38:17;2.50;99.90
8332;DHT22;4203;48.144;14.118;2023-03-11T03:40:46;2.50;99.90
8332;DHT22;4203;48.144;14.118;2023-03-11T03:43:13;2.60;99.90
8332;DHT22;4203;48.144;14.118;2023-03-11T03:45:40;2.50;99.90
8332;DHT22;4203;48.144;14.118;2023-03-11T03:48:08;2.50;99.90
8332;DHT22;4203;48.144;14.118;2023-03-11T03:50:35;2.50;99.90
8332;DHT22;4203;48.144;14.118;2023-03-11T03:53:02;2.30;99.90
8332;DHT22;4203;48.144;14.118;2023-03-11T03:55:31;2.30;99.90
8332;DHT22;4203;48.144;14.118;2023-03-11T03:57:58;2.20;99.90
8332;DHT22;4203;48.144;14.118;2023-03-11T04:00:25;2.20;99.90
8332;DHT22;4203;48.144;14.118;2023-03-11T04:02:52;2.20;99.90
8332;DHT22;4203;48.144;14.118;2023-03-11T04:05:19;2.10;99.90
8332;DHT22;4203;48.144;14.118;2023-03-11T04:07:46;2.10;99.90
8332;DHT22;4203;48.144;14.118;2023-03-11T04:10:14;2.10;99.90
8332;DHT22;4203;48.144;14.118;2023-03-11T04:12:42;2.00;99.90
8332;DHT22;4203;48.144;14.118;2023-03-11T04:15:10;2.00;99.90
8332;DHT22;4203;48.144;14.118;2023-03-11T04:17:37;2.10;99.90
8332;DHT22;4203;48.144;14.118;2023-03-11T04:20:05;2.10;99.90
8332;DHT22;4203;48.144;14.118;2023-03-11T04:22:33;2.10;99.90
8332;DHT22;4203;48.144;14.118;2023-03-11T04:25:01;2.00;99.90
8332;DHT22;4203;48.144;14.118;2023-03-11T04:27:28;2.00;99.90
8332;DHT22;4203;48.144;14.118;2023-03-11T04:29:57;2.10;99.90
8332;DHT22;4203;48.144;14.118;2023-03-11T04:32:24;2.10;99.90
8332;DHT22;4203;48.144;14.118;2023-03-11T04:34:51;2.10;99.90
8332;DHT22;4203;48.144;14.118;2023-03-11T04:37:19;2.20;99.90
8332;DHT22;4203;48.144;14.118;2023-03-11T04:39:46;2.20;99.90
8332;DHT22;4203;48.144;14.118;2023-03-11T04:42:13;2.20;99.90
8332;DHT22;4203;48.144;14.118;2023-03-11T04:44:40;2.20;99.90
8332;DHT22;4203;48.144;14.118;2023-03-11T04:47:09;2.20;99.90
8332;DHT22;4203;48.144;14.118;2023-03-11T04:49:36;2.20;99.90
8332;DHT22;4203;48.144;14.118;2023-03-11T04:52:04;2.20;99.90
8332;DHT22;4203;48.144;14.118;2023-03-11T04:54:31;2.30;99.90
8332;DHT22;4203;48.144;14.118;2023-03-11T04:56:58;2.30;99.90
8332;DHT22;4203;48.144;14.118;2023-03-11T04:59:25;2.30;99.90
8332;DHT22;4203;48.144;14.118;2023-03-11T05:01:52;2.30;99.90
8332;DHT22;4203;48.144;14.118;2023-03-11T05:04:21;2.30;99.90
8332;DHT22;4203;48.144;14.118;2023-03-11T05:06:48;2.30;99.90
8332;DHT22;4203;48.144;14.118;2023-03-11T05:09:16;2.30;99.90
8332;DHT22;4203;48.144;14.118;2023-03-11T05:11:43;2.40;99.90
8332;DHT22;4203;48.144;14.118;2023-03-11T05:14:11;2.40;99.90
8332;DHT22;4203;48.144;14.118;2023-03-11T05:16:38;2.40;99.90
8332;DHT22;4203;48.144;14.118;2023-03-11T05:19:05;2.40;99.90
8332;DHT22;4203;48.144;14.118;2023-03-11T05:21:54;2.40;99.90
8332;DHT22;4203;48.144;14.118;2023-03-11T05:24:21;2.40;99.90
8332;DHT22;4203;48.144;14.118;2023-03-11T05:26:50;2.40;99.90
8332;DHT22;4203;48.144;14.118;2023-03-11T05:29:17;2.40;99.90
8332;DHT22;4203;48.144;14.118;2023-03-11T05:31:45;2.40;99.90
8332;DHT22;4203;48.144;14.118;2023-03-11T05:34:12;2.40;99.90
8332;DHT22;4203;48.144;14.118;2023-03-11T05:36:40;2.40;99.90
8332;DHT22;4203;48.144;14.118;2023-03-11T05:39:09;2.40;99.90
8332;DHT22;4203;48.144;14.118;2023-03-11T05:41:36;2.40;99.90
8332;DHT22;4203;48.144;14.118;2023-03-11T05:44:03;2.40;99.90
8332;DHT22;4203;48.144;14.118;2023-03-11T05:46:30;2.40;99.90
8332;DHT22;4203;48.144;14.118;2023-03-11T05:48:58;2.40;99.90
8332;DHT22;4203;48.144;14.118;2023-03-11T05:51:26;2.40;99.90
8332;DHT22;4203;48.144;14.118;2023-03-11T05:53:53;2.40;99.90
8332;DHT22;4203;48.144;14.118;2023-03-11T05:56:22;2.40;99.90
8332;DHT22;4203;48.144;14.118;2023-03-11T05:58:49;2.30;99.90
8332;DHT22;4203;48.144;14.118;2023-03-11T06:01:18;2.30;99.90
8332;DHT22;4203;48.144;14.118;2023-03-11T06:03:45;2.30;99.90
8332;DHT22;4203;48.144;14.118;2023-03-11T06:06:12;2.30;99.90
8332;DHT22;4203;48.144;14.118;2023-03-11T06:08:40;2.30;99.90
8332;DHT22;4203;48.144;14.118;2023-03-11T06:11:14;2.40;99.90
8332;DHT22;4203;48.144;14.118;2023-03-11T06:13:43;2.30;99.90
8332;DHT22;4203;48.144;14.118;2023-03-11T06:16:10;2.30;99.90
8332;DHT22;4203;48.144;14.118;2023-03-11T06:18:38;2.30;99.90
8332;DHT22;4203;48.144;14.118;2023-03-11T06:21:05;2.30;99.90
8332;DHT22;4203;48.144;14.118;2023-03-11T06:23:34;2.30;99.90
8332;DHT22;4203;48.144;14.118;2023-03-11T06:26:03;2.20;99.90
8332;DHT22;4203;48.144;14.118;2023-03-11T06:28:31;2.20;99.90
8332;DHT22;4203;48.144;14.118;2023-03-11T06:31:07;2.30;99.90
8332;DHT22;4203;48.144;14.118;2023-03-11T06:33:34;2.30;99.90
8332;DHT22;4203;48.144;14.118;2023-03-11T06:36:03;2.30;99.90
8332;DHT22;4203;48.144;14.118;2023-03-11T06:38:30;2.30;99.90
8332;DHT22;4203;48.144;14.118;2023-03-11T06:40:58;2.30;99.90
8332;DHT22;4203;48.144;14.118;2023-03-11T06:43:26;2.20;99.90
8332;DHT22;4203;48.144;14.118;2023-03-11T06:45:54;2.20;99.90
8332;DHT22;4203;48.144;14.118;2023-03-11T06:48:23;2.20;99.90
8332;DHT22;4203;48.144;14.118;2023-03-11T06:50:53;2.30;99.90
8332;DHT22;4203;48.144;14.118;2023-03-11T06:53:21;2.40;99.90
8332;DHT22;4203;48.144;14.118;2023-03-11T06:55:57;2.40;99.90
8332;DHT22;4203;48.144;14.118;2023-03-11T06:58:25;2.50;99.90
8332;DHT22;4203;48.144;14.118;2023-03-11T07:00:52;2.50;99.90
8332;DHT22;4203;48.144;14.118;2023-03-11T07:03:19;2.60;99.90
8332;DHT22;4203;48.144;14.118;2023-03-11T07:05:51;2.60;99.90
8332;DHT22;4203;48.144;14.118;2023-03-11T07:08:18;2.70;99.90
8332;DHT22;4203;48.144;14.118;2023-03-11T07:10:45;2.80;99.90
8332;DHT22;4203;48.144;14.118;2023-03-11T07:13:13;2.80;99.90
8332;DHT22;4203;48.144;14.118;2023-03-11T07:15:40;2.90;99.90
8332;DHT22;4203;48.144;14.118;2023-03-11T07:18:07;3.00;99.90
8332;DHT22;4203;48.144;14.118;2023-03-11T07:20:34;3.00;99.90
8332;DHT22;4203;48.144;14.118;2023-03-11T07:23:03;3.10;99.90
8332;DHT22;4203;48.144;14.118;2023-03-11T07:25:30;3.20;99.90
8332;DHT22;4203;48.144;14.118;2023-03-11T07:27:57;3.40;99.90
8332;DHT22;4203;48.144;14.118;2023-03-11T07:30:24;3.50;99.90
8332;DHT22;4203;48.144;14.118;2023-03-11T07:32:52;3.60;99.90
8332;DHT22;4203;48.144;14.118;2023-03-11T07:35:19;3.60;99.90
8332;DHT22;4203;48.144;14.118;2023-03-11T07:37:46;3.60;99.90
8332;DHT22;4203;48.144;14.118;2023-03-11T07:40:15;3.50;99.90
8332;DHT22;4203;48.144;14.118;2023-03-11T07:42:42;3.30;99.90
8332;DHT22;4203;48.144;14.118;2023-03-11T07:45:10;3.10;99.90
8332;DHT22;4203;48.144;14.118;2023-03-11T07:47:37;3.20;99.90
8332;DHT22;4203;48.144;14.118;2023-03-11T07:50:05;3.50;99.90
8332;DHT22;4203;48.144;14.118;2023-03-11T07:52:32;3.70;99.90
8332;DHT22;4203;48.144;14.118;2023-03-11T07:54:59;3.90;99.90
8332;DHT22;4203;48.144;14.118;2023-03-11T07:57:28;3.80;99.90
8332;DHT22;4203;48.144;14.118;2023-03-11T07:59:55;3.70;99.90
8332;DHT22;4203;48.144;14.118;2023-03-11T08:02:22;3.90;99.90
8332;DHT22;4203;48.144;14.118;2023-03-11T08:04:49;3.90;99.90
8332;DHT22;4203;48.144;14.118;2023-03-11T08:07:16;3.80;99.90
8332;DHT22;4203;48.144;14.118;2023-03-11T08:09:45;3.80;99.90
8332;DHT22;4203;48.144;14.118;2023-03-11T08:12:13;3.80;99.90
8332;DHT22;4203;48.144;14.118;2023-03-11T08:14:41;4.30;99.90
8332;DHT22;4203;48.144;14.118;2023-03-11T08:17:09;4.40;99.90
8332;DHT22;4203;48.144;14.118;2023-03-11T08:19:36;4.50;99.90
8332;DHT22;4203;48.144;14.118;2023-03-11T08:22:04;4.70;99.90
8332;DHT22;4203;48.144;14.118;2023-03-11T08:24:31;4.90;99.90
8332;DHT22;4203;48.144;14.118;2023-03-11T08:26:59;4.80;99.90
8332;DHT22;4203;48.144;14.118;2023-03-11T08:29:26;4.80;99.90
8332;DHT22;4203;48.144;14.118;2023-03-11T08:31:55;4.80;99.90
8332;DHT22;4203;48.144;14.118;2023-03-11T08:34:22;4.70;99.90
8332;DHT22;4203;48.144;14.118;2023-03-11T08:36:52;4.50;99.90
8332;DHT22;4203;48.144;14.118;2023-03-11T08:39:19;4.70;99.90
8332;DHT22;4203;48.144;14.118;2023-03-11T08:41:48;5.00;99.90
8332;DHT22;4203;48.144;14.118;2023-03-11T08:44:15;5.10;99.90
8332;DHT22;4203;48.144;14.118;2023-03-11T08:46:42;5.10;99.90
8332;DHT22;4203;48.144;14.118;2023-03-11T08:49:11;5.00;99.90
8332;DHT22;4203;48.144;14.118;2023-03-11T08:51:38;5.00;99.90
8332;DHT22;4203;48.144;14.118;2023-03-11T08:54:06;5.20;99.90
8332;DHT22;4203;48.144;14.118;2023-03-11T08:56:33;5.40;99.90
8332;DHT22;4203;48.144;14.118;2023-03-11T08:59:00;5.50;99.90
8332;DHT22;4203;48.144;14.118;2023-03-11T09:01:28;5.60;99.90
8332;DHT22;4203;48.144;14.118;2023-03-11T09:03:55;5.40;99.90
8332;DHT22;4203;48.144;14.118;2023-03-11T09:06:24;5.40;99.90
8332;DHT22;4203;48.144;14.118;2023-03-11T09:08:51;5.50;99.90
8332;DHT22;4203;48.144;14.118;2023-03-11T09:11:18;5.90;99.90
8332;DHT22;4203;48.144;14.118;2023-03-11T09:13:47;6.50;99.90
8332;DHT22;4203;48.144;14.118;2023-03-11T09:16:16;5.40;99.90
8332;DHT22;4203;48.144;14.118;2023-03-11T09:18:43;5.20;99.90
8332;DHT22;4203;48.144;14.118;2023-03-11T09:21:11;4.90;99.90
8332;DHT22;4203;48.144;14.118;2023-03-11T09:23:40;4.70;99.90
8332;DHT22;4203;48.144;14.118;2023-03-11T09:26:07;4.70;99.90
8332;DHT22;4203;48.144;14.118;2023-03-11T09:28:34;4.50;99.90
8332;DHT22;4203;48.144;14.118;2023-03-11T09:31:02;4.50;99.90
8332;DHT22;4203;48.144;14.118;2023-03-11T09:33:29;4.60;99.90
8332;DHT22;4203;48.144;14.118;2023-03-11T09:35:57;4.50;99.90
8332;DHT22;4203;48.144;14.118;2023-03-11T09:38:24;4.40;99.90
8332;DHT22;4203;48.144;14.118;2023-03-11T09:40:58;4.20;99.90
8332;DHT22;4203;48.144;14.118;2023-03-11T09:43:50;4.20;99.90
8332;DHT22;4203;48.144;14.118;2023-03-11T09:46:32;4.40;99.90
8332;DHT22;4203;48.144;14.118;2023-03-11T09:49:10;4.60;99.90
8332;DHT22;4203;48.144;14.118;2023-03-11T09:51:42;5.00;99.90
8332;DHT22;4203;48.144;14.118;2023-03-11T09:54:12;5.40;99.90
8332;DHT22;4203;48.144;14.118;2023-03-11T09:56:41;5.70;99.90
8332;DHT22;4203;48.144;14.118;2023-03-11T09:59:15;5.80;99.90
8332;DHT22;4203;48.144;14.118;2023-03-11T10:01:48;5.60;99.90
8332;DHT22;4203;48.144;14.118;2023-03-11T10:04:20;5.80;99.90
8332;DHT22;4203;48.144;14.118;2023-03-11T10:06:51;5.70;99.90
8332;DHT22;4203;48.144;14.118;2023-03-11T10:09:29;6.10;99.90
8332;DHT22;4203;48.144;14.118;2023-03-11T10:12:17;6.30;99.90
8332;DHT22;4203;48.144;14.118;2023-03-11T10:15:03;6.30;99.90
8332;DHT22;4203;48.144;14.118;2023-03-11T10:17:43;6.40;99.90
8332;DHT22;4203;48.144;14.118;2023-03-11T10:20:19;6.10;99.90
8332;DHT22;4203;48.144;14.118;2023-03-11T10:22:55;6.20;99.90
8332;DHT22;4203;48.144;14.118;2023-03-11T10:25:26;5.90;99.90
8332;DHT22;4203;48.144;14.118;2023-03-11T10:27:59;5.80;99.90
8332;DHT22;4203;48.144;14.118;2023-03-11T10:30:31;5.70;99.90
8332;DHT22;4203;48.144;14.118;2023-03-11T10:33:02;5.50;99.90
8332;DHT22;4203;48.144;14.118;2023-03-11T10:35:36;5.60;99.90
8332;DHT22;4203;48.144;14.118;2023-03-11T10:38:12;6.10;99.90
8332;DHT22;4203;48.144;14.118;2023-03-11T10:40:42;6.60;99.90
8332;DHT22;4203;48.144;14.118;2023-03-11T10:43:13;6.50;99.30
8332;DHT22;4203;48.144;14.118;2023-03-11T10:45:43;6.30;99.90
8332;DHT22;4203;48.144;14.118;2023-03-11T10:48:15;5.90;99.90
8332;DHT22;4203;48.144;14.118;2023-03-11T10:50:48;5.80;99.90
8332;DHT22;4203;48.144;14.118;2023-03-11T10:53:17;5.80;99.90
8332;DHT22;4203;48.144;14.118;2023-03-11T10:55:48;5.90;99.90
8332;DHT22;4203;48.144;14.118;2023-03-11T10:58:19;6.00;99.90
8332;DHT22;4203;48.144;14.118;2023-03-11T11:00:59;6.00;99.90
8332;DHT22;4203;48.144;14.118;2023-03-11T11:03:26;5.80;99.30
8332;DHT22;4203;48.144;14.118;2023-03-11T11:06:00;5.60;99.70
8332;DHT22;4203;48.144;14.118;2023-03-11T11:08:28;5.70;99.70
8332;DHT22;4203;48.144;14.118;2023-03-11T11:10:57;5.60;99.90
8332;DHT22;4203;48.144;14.118;2023-03-11T11:13:27;5.80;99.90
8332;DHT22;4203;48.144;14.118;2023-03-11T11:15:59;5.90;99.90
8332;DHT22;4203;48.144;14.118;2023-03-11T11:18:28;6.20;99.60
8332;DHT22;4203;48.144;14.118;2023-03-11T11:21:03;6.50;99.90
8332;DHT22;4203;48.144;14.118;2023-03-11T11:23:37;6.50;99.60
8332;DHT22;4203;48.144;14.118;2023-03-11T11:26:09;6.30;99.90
8332;DHT22;4203;48.144;14.118;2023-03-11T11:28:41;6.00;99.90
8332;DHT22;4203;48.144;14.118;2023-03-11T11:31:21;5.80;99.30
8332;DHT22;4203;48.144;14.118;2023-03-11T11:33:50;5.70;99.50
8332;DHT22;4203;48.144;14.118;2023-03-11T11:36:20;5.60;99.70
8332;DHT22;4203;48.144;14.118;2023-03-11T11:38:49;5.50;99.90
8332;DHT22;4203;48.144;14.118;2023-03-11T11:41:20;5.50;99.90
8332;DHT22;4203;48.144;14.118;2023-03-11T11:43:51;5.40;99.70
8332;DHT22;4203;48.144;14.118;2023-03-11T11:46:23;5.40;99.90
8332;DHT22;4203;48.144;14.118;2023-03-11T11:49:09;5.30;99.90
8332;DHT22;4203;48.144;14.118;2023-03-11T11:51:40;5.20;99.40
8332;DHT22;4203;48.144;14.118;2023-03-11T11:54:15;5.20;99.90
8332;DHT22;4203;48.144;14.118;2023-03-11T11:56:45;5.40;99.90
8332;DHT22;4203;48.144;14.118;2023-03-11T11:59:18;5.50;99.90
8332;DHT22;4203;48.144;14.118;2023-03-11T12:01:54;5.60;99.90
8332;DHT22;4203;48.144;14.118;2023-03-11T12:04:45;5.80;99.90
8332;DHT22;4203;48.144;14.118;2023-03-11T12:07:31;5.90;99.90
8332;DHT22;4203;48.144;14.118;2023-03-11T12:10:13;6.10;99.90
8332;DHT22;4203;48.144;14.118;2023-03-11T12:12:47;6.20;99.90
8332;DHT22;4203;48.144;14.118;2023-03-11T12:15:20;6.30;99.90
8332;DHT22;4203;48.144;14.118;2023-03-11T12:17:51;6.40;99.90
8332;DHT22;4203;48.144;14.118;2023-03-11T12:20:32;6.30;97.90
8332;DHT22;4203;48.144;14.118;2023-03-11T12:23:16;6.00;99.00
8332;DHT22;4203;48.144;14.118;2023-03-11T12:26:04;5.60;99.40
8332;DHT22;4203;48.144;14.118;2023-03-11T12:28:41;5.60;99.90
8332;DHT22;4203;48.144;14.118;2023-03-11T12:31:12;5.60;99.90
8332;DHT22;4203;48.144;14.118;2023-03-11T12:33:40;5.60;99.90
8332;DHT22;4203;48.144;14.118;2023-03-11T12:36:21;5.50;99.90
8332;DHT22;4203;48.144;14.118;2023-03-11T12:38:50;5.40;99.90
8332;DHT22;4203;48.144;14.118;2023-03-11T12:41:42;5.40;99.90
8332;DHT22;4203;48.144;14.118;2023-03-11T12:44:24;5.30;99.90
8332;DHT22;4203;48.144;14.118;2023-03-11T12:47:18;5.20;99.90
8332;DHT22;4203;48.144;14.118;2023-03-11T12:49:47;5.40;99.90
8332;DHT22;4203;48.144;14.118;2023-03-11T12:52:28;5.40;99.90
8332;DHT22;4203;48.144;14.118;2023-03-11T12:58:31;5.70;99.90
8332;DHT22;4203;48.144;14.118;2023-03-11T13:07:25;6.50;99.90
8332;DHT22;4203;48.144;14.118;2023-03-11T13:10:04;6.60;99.90
8332;DHT22;4203;48.144;14.118;2023-03-11T13:12:41;6.60;99.90
8332;DHT22;4203;48.144;14.118;2023-03-11T13:18:22;6.70;99.90
8332;DHT22;4203;48.144;14.118;2023-03-11T13:20:54;7.70;99.90
8332;DHT22;4203;48.144;14.118;2023-03-11T13:23:32;8.20;99.90
8332;DHT22;4203;48.144;14.118;2023-03-11T13:26:24;8.80;99.90
8332;DHT22;4203;48.144;14.118;2023-03-11T13:32:08;10.20;99.30
8332;DHT22;4203;48.144;14.118;2023-03-11T13:34:45;9.90;99.90
8332;DHT22;4203;48.144;14.118;2023-03-11T13:37:31;9.60;99.90
8332;DHT22;4203;48.144;14.118;2023-03-11T13:40:10;9.20;99.90
8332;DHT22;4203;48.144;14.118;2023-03-11T13:42:43;8.60;99.90
8332;DHT22;4203;48.144;14.118;2023-03-11T13:45:24;8.00;99.90
8332;DHT22;4203;48.144;14.118;2023-03-11T13:47:55;7.50;99.90
8332;DHT22;4203;48.144;14.118;2023-03-11T13:50:25;7.30;99.90
8332;DHT22;4203;48.144;14.118;2023-03-11T13:52:56;7.40;99.90
8332;DHT22;4203;48.144;14.118;2023-03-11T13:55:29;8.20;99.90
8332;DHT22;4203;48.144;14.118;2023-03-11T13:57:57;8.90;99.90
8332;DHT22;4203;48.144;14.118;2023-03-11T14:00:26;9.20;99.90
8332;DHT22;4203;48.144;14.118;2023-03-11T14:02:55;8.60;99.80
8332;DHT22;4203;48.144;14.118;2023-03-11T14:05:25;8.00;99.90
8332;DHT22;4203;48.144;14.118;2023-03-11T14:07:55;7.70;99.90
8332;DHT22;4203;48.144;14.118;2023-03-11T14:10:37;7.40;99.90
8332;DHT22;4203;48.144;14.118;2023-03-11T14:13:10;7.10;99.90
8332;DHT22;4203;48.144;14.118;2023-03-11T14:15:45;6.90;99.90
8332;DHT22;4203;48.144;14.118;2023-03-11T14:18:36;7.00;99.90
8332;DHT22;4203;48.144;14.118;2023-03-11T14:21:06;7.10;99.90
8332;DHT22;4203;48.144;14.118;2023-03-11T14:23:42;7.00;99.90
8332;DHT22;4203;48.144;14.118;2023-03-11T14:26:12;7.20;99.90
8332;DHT22;4203;48.144;14.118;2023-03-11T14:28:42;7.30;99.90
8332;DHT22;4203;48.144;14.118;2023-03-11T14:31:22;7.50;99.90
8332;DHT22;4203;48.144;14.118;2023-03-11T14:33:57;7.90;99.90
8332;DHT22;4203;48.144;14.118;2023-03-11T14:36:29;8.70;99.90
8332;DHT22;4203;48.144;14.118;2023-03-11T14:38:58;9.10;99.80
8332;DHT22;4203;48.144;14.118;2023-03-11T14:41:25;8.60;99.90
8332;DHT22;4203;48.144;14.118;2023-03-11T14:43:53;8.00;99.90
8332;DHT22;4203;48.144;14.118;2023-03-11T14:46:25;7.40;99.90
8332;DHT22;4203;48.144;14.118;2023-03-11T14:48:55;6.90;99.90
8332;DHT22;4203;48.144;14.118;2023-03-11T14:51:28;6.50;99.90
8332;DHT22;4203;48.144;14.118;2023-03-11T14:54:05;6.10;99.90
8332;DHT22;4203;48.144;14.118;2023-03-11T14:56:37;5.70;99.90
8332;DHT22;4203;48.144;14.118;2023-03-11T14:59:11;5.50;99.90
8332;DHT22;4203;48.144;14.118;2023-03-11T15:01:40;5.30;99.90
8332;DHT22;4203;48.144;14.118;2023-03-11T15:04:11;5.20;99.90
8332;DHT22;4203;48.144;14.118;2023-03-11T15:06:41;5.20;99.90
8332;DHT22;4203;48.144;14.118;2023-03-11T15:09:12;5.00;99.90
8332;DHT22;4203;48.144;14.118;2023-03-11T15:11:46;5.10;99.90
8332;DHT22;4203;48.144;14.118;2023-03-11T15:14:20;5.10;99.90
8332;DHT22;4203;48.144;14.118;2023-03-11T15:16:48;4.90;99.90
8332;DHT22;4203;48.144;14.118;2023-03-11T15:19:30;4.90;99.90
8332;DHT22;4203;48.144;14.118;2023-03-11T15:22:16;4.90;99.90
8332;DHT22;4203;48.144;14.118;2023-03-11T15:24:51;4.80;99.90
8332;DHT22;4203;48.144;14.118;2023-03-11T15:27:27;4.90;99.90
8332;DHT22;4203;48.144;14.118;2023-03-11T15:29:55;4.80;99.90
8332;DHT22;4203;48.144;14.118;2023-03-11T15:32:32;4.80;99.90
8332;DHT22;4203;48.144;14.118;2023-03-11T15:35:11;4.70;99.90
8332;DHT22;4203;48.144;14.118;2023-03-11T15:37:40;4.60;99.90
8332;DHT22;4203;48.144;14.118;2023-03-11T15:40:20;4.60;99.90
8332;DHT22;4203;48.144;14.118;2023-03-11T15:43:10;4.60;99.90
8332;DHT22;4203;48.144;14.118;2023-03-11T15:45:42;4.60;99.90
8332;DHT22;4203;48.144;14.118;2023-03-11T15:48:10;4.60;99.90
8332;DHT22;4203;48.144;14.118;2023-03-11T15:50:46;4.50;99.90
8332;DHT22;4203;48.144;14.118;2023-03-11T15:53:13;4.40;99.90
8332;DHT22;4203;48.144;14.118;2023-03-11T15:55:42;4.30;99.90
8332;DHT22;4203;48.144;14.118;2023-03-11T15:58:11;4.10;99.90
8332;DHT22;4203;48.144;14.118;2023-03-11T16:00:43;4.10;99.90
8332;DHT22;4203;48.144;14.118;2023-03-11T16:03:11;4.00;99.90
8332;DHT22;4203;48.144;14.118;2023-03-11T16:05:38;3.90;99.90
8332;DHT22;4203;48.144;14.118;2023-03-11T16:08:05;3.80;99.90
8332;DHT22;4203;48.144;14.118;2023-03-11T16:10:33;3.70;99.90
8332;DHT22;4203;48.144;14.118;2023-03-11T16:13:02;3.60;99.90
8332;DHT22;4203;48.144;14.118;2023-03-11T16:15:30;3.60;99.90
8332;DHT22;4203;48.144;14.118;2023-03-11T16:17:59;3.60;99.90
8332;DHT22;4203;48.144;14.118;2023-03-11T16:20:29;3.50;99.90
8332;DHT22;4203;48.144;14.118;2023-03-11T16:22:57;3.40;99.90
8332;DHT22;4203;48.144;14.118;2023-03-11T16:25:28;3.40;99.90
8332;DHT22;4203;48.144;14.118;2023-03-11T16:27:57;3.30;99.90
8332;DHT22;4203;48.144;14.118;2023-03-11T16:30:27;3.30;99.90
8332;DHT22;4203;48.144;14.118;2023-03-11T16:32:55;3.20;99.90
8332;DHT22;4203;48.144;14.118;2023-03-11T16:35:22;3.20;99.90
8332;DHT22;4203;48.144;14.118;2023-03-11T16:41:11;3.20;99.90